Time;durP1;ratioP1;P1;durP2;ratioP2;P2;SDS_P1;SDS_P2;PMS_P1;PMS_P2;Temp;Humidity;BMP_temperature;BMP_pressure;BME280_temperature;BME280_humidity;BME280_pressure;Samples;Min_cycle;Max_cycle;Signal;HPM_P1;HPM_P2
2022/08/03 00:02:19;;;;;;;2.88;2.55;;;;;;;;;;10198274;28;20048;-59
2022/08/03 00:07:18;;;;;;;3.45;3.15;;;;;;;;;;10197212;28;20045;-59
2022/08/03 00:12:16;;;;;;;3.17;2.88;;;;;;;;;;10198409;28;20049;-59
2022/08/03 00:17:15;;;;;;;6.90;2.92;;;;;;;;;;10197415;28;20053;-59
2022/08/03 00:22:15;;;;;;;2.92;2.38;;;;;;;;;;10198284;28;20093;-59
2022/08/03 00:27:14;;;;;;;2.45;2.25;;;;;;;;;;10198038;28;20066;-59
2022/08/03 00:32:13;;;;;;;4.38;2.72;;;;;;;;;;10195364;28;20050;-60
2022/08/03 00:37:16;;;;;;;3.00;2.80;;;;;;;;;;10197669;28;20050;-60
2022/08/03 00:42:14;;;;;;;3.67;3.17;;;;;;;;;;10196769;28;20968;-60
2022/08/03 00:47:13;;;;;;;3.55;3.08;;;;;;;;;;10196686;28;20136;-60
2022/08/03 00:52:13;;;;;;;3.58;3.28;;;;;;;;;;10196500;28;20050;-60
2022/08/03 00:57:13;;;;;;;3.65;3.05;;;;;;;;;;10196886;28;20060;-60
2022/08/03 01:02:11;;;;;;;2.55;2.35;;;;;;;;;;10195628;28;20420;-60
2022/08/03 01:07:16;;;;;;;3.83;2.90;;;;;;;;;;10195644;28;20473;-60
2022/08/03 01:12:21;;;;;;;3.70;3.22;;;;;;;;;;10196614;28;20045;-60
2022/08/03 01:17:23;;;;;;;4.65;2.78;;;;;;;;;;10196531;28;20061;-60
2022/08/03 01:22:36;;;;;;;6.22;3.00;;;;;;;;;;10196163;28;20066;-59
2022/08/03 01:27:43;;;;;;;3.00;2.50;;;;;;;;;;10186782;28;20082;-61
2022/08/03 01:32:46;;;;;;;2.58;2.38;;;;;;;;;;10195628;28;20468;-59
2022/08/03 01:38:00;;;;;;;2.95;2.70;;;;;;;;;;10194266;28;20056;-61
2022/08/03 01:43:00;;;;;;;2.40;2.20;;;;;;;;;;10193752;28;20085;-59
2022/08/03 01:48:00;;;;;;;4.93;2.50;;;;;;;;;;10195057;28;20056;-59
2022/08/03 01:52:59;;;;;;;4.68;2.40;;;;;;;;;;10195118;28;20057;-59
2022/08/03 01:57:59;;;;;;;2.50;2.30;;;;;;;;;;10192739;28;20050;-60
2022/08/03 02:03:06;;;;;;;2.30;2.10;;;;;;;;;;10193746;28;20065;-60
2022/08/03 02:08:05;;;;;;;2.65;2.20;;;;;;;;;;10194751;28;20518;-59
2022/08/03 02:13:06;;;;;;;3.70;2.15;;;;;;;;;;10193919;28;20041;-60
2022/08/03 02:18:08;;;;;;;2.83;2.40;;;;;;;;;;10193709;28;20077;-61
2022/08/03 02:23:07;;;;;;;3.88;2.20;;;;;;;;;;10193825;28;20168;-58
2022/08/03 02:28:07;;;;;;;2.42;2.22;;;;;;;;;;10194231;28;20073;-59
2022/08/03 02:33:09;;;;;;;5.20;2.65;;;;;;;;;;10193771;28;20054;-59
2022/08/03 02:38:08;;;;;;;3.75;2.63;;;;;;;;;;10193474;28;20077;-60
2022/08/03 02:43:08;;;;;;;3.10;2.80;;;;;;;;;;10192814;28;20495;-59
2022/08/03 02:48:08;;;;;;;3.55;2.85;;;;;;;;;;10193397;28;20049;-60
2022/08/03 02:53:07;;;;;;;6.93;2.75;;;;;;;;;;10194079;28;20081;-60
2022/08/03 02:58:06;;;;;;;3.25;2.95;;;;;;;;;;10193328;28;20060;-60
2022/08/03 03:03:06;;;;;;;5.28;3.33;;;;;;;;;;10193394;28;20057;-59
2022/08/03 03:08:07;;;;;;;4.38;2.55;;;;;;;;;;10192767;28;20050;-60
2022/08/03 03:13:19;;;;;;;9.52;3.15;;;;;;;;;;10193203;28;20069;-60
2022/08/03 03:18:18;;;;;;;4.55;3.85;;;;;;;;;;10189272;28;20093;-60
2022/08/03 03:23:22;;;;;;;3.58;3.28;;;;;;;;;;10193117;28;20054;-59
2022/08/03 03:28:20;;;;;;;4.10;3.13;;;;;;;;;;10192404;28;20057;-60
2022/08/03 03:33:19;;;;;;;5.18;3.40;;;;;;;;;;10196122;28;20045;-60
2022/08/03 03:38:17;;;;;;;4.30;2.97;;;;;;;;;;10200016;28;20049;-59
2022/08/03 03:43:17;;;;;;;3.50;3.03;;;;;;;;;;10198597;28;20524;-60
2022/08/03 03:48:16;;;;;;;4.30;3.20;;;;;;;;;;10199293;28;20073;-60
2022/08/03 03:53:14;;;;;;;4.00;2.88;;;;;;;;;;10199262;28;20077;-59
2022/08/03 03:58:13;;;;;;;4.40;3.45;;;;;;;;;;10198762;28;20054;-59
2022/08/03 04:03:12;;;;;;;5.65;3.58;;;;;;;;;;10197442;28;20365;-59
2022/08/03 04:13:31;;;;;;;5.85;4.45;;;;;;;;;;10198363;28;20080;-59
2022/08/03 04:18:31;;;;;;;4.40;3.72;;;;;;;;;;10198030;28;20439;-59
2022/08/03 04:23:33;;;;;;;5.55;2.95;;;;;;;;;;10172202;28;20582;-58
2022/08/03 04:28:32;;;;;;;8.73;3.35;;;;;;;;;;10155851;28;20090;-59
2022/08/03 04:33:33;;;;;;;6.43;3.50;;;;;;;;;;10154503;28;20081;-61
2022/08/03 04:38:35;;;;;;;6.15;2.83;;;;;;;;;;10165279;28;20046;-60
2022/08/03 04:43:34;;;;;;;6.43;2.70;;;;;;;;;;10177718;28;20069;-60
2022/08/03 04:48:34;;;;;;;3.38;2.83;;;;;;;;;;10176779;28;20076;-59
2022/08/03 04:53:32;;;;;;;6.68;3.15;;;;;;;;;;10164508;28;20081;-59
2022/08/03 04:58:31;;;;;;;7.50;2.83;;;;;;;;;;10173140;28;20061;-60
2022/08/03 05:03:30;;;;;;;4.47;3.30;;;;;;;;;;10175088;28;20058;-59
2022/08/03 05:08:30;;;;;;;4.70;3.35;;;;;;;;;;10173567;28;20066;-59
2022/08/03 05:13:28;;;;;;;6.20;2.95;;;;;;;;;;10175989;28;20053;-60
2022/08/03 05:18:27;;;;;;;3.65;3.05;;;;;;;;;;10174365;28;20073;-59
2022/08/03 05:23:25;;;;;;;5.32;3.40;;;;;;;;;;10160054;28;20077;-59
2022/08/03 05:28:25;;;;;;;4.97;2.70;;;;;;;;;;10185888;28;20077;-59
2022/08/03 05:33:23;;;;;;;5.10;2.20;;;;;;;;;;10192009;28;20041;-60
2022/08/03 05:38:21;;;;;;;2.55;2.15;;;;;;;;;;10175212;28;20566;-59
2022/08/03 05:43:32;;;;;;;5.38;2.30;;;;;;;;;;10154818;28;20041;-58
2022/08/03 05:48:40;;;;;;;3.00;2.67;;;;;;;;;;10157263;28;20524;-60
2022/08/03 05:53:52;;;;;;;4.90;2.47;;;;;;;;;;10169118;28;20085;-59
2022/08/03 05:58:52;;;;;;;6.18;3.47;;;;;;;;;;10174586;28;20065;-58
2022/08/03 06:03:51;;;;;;;3.35;2.70;;;;;;;;;;10172318;28;20092;-58
2022/08/03 06:08:49;;;;;;;2.30;2.10;;;;;;;;;;10174592;28;20076;-59
2022/08/03 06:13:48;;;;;;;4.97;2.88;;;;;;;;;;10167479;28;20074;-61
2022/08/03 06:18:47;;;;;;;3.38;3.00;;;;;;;;;;10180253;28;20081;-59
2022/08/03 06:23:46;;;;;;;5.85;2.42;;;;;;;;;;10156090;28;20077;-58
2022/08/03 06:28:53;;;;;;;3.33;2.67;;;;;;;;;;10173234;28;20083;-59
2022/08/03 06:33:53;;;;;;;3.60;2.30;;;;;;;;;;10175557;28;20074;-59
2022/08/03 06:39:12;;;;;;;3.53;1.75;;;;;;;;;;10150624;28;20086;-60
2022/08/03 06:44:10;;;;;;;10.88;2.53;;;;;;;;;;10169967;28;20069;-59
2022/08/03 06:49:10;;;;;;;4.00;3.58;;;;;;;;;;10174991;28;20066;-58
2022/08/03 06:54:08;;;;;;;3.13;2.63;;;;;;;;;;10168972;28;20061;-58
2022/08/03 06:59:07;;;;;;;2.28;2.08;;;;;;;;;;10173554;28;20078;-58
2022/08/03 07:04:05;;;;;;;3.95;3.15;;;;;;;;;;10175386;28;20461;-59
2022/08/03 07:09:05;;;;;;;3.35;2.08;;;;;;;;;;10162361;28;20519;-58
2022/08/03 07:14:03;;;;;;;3.47;2.33;;;;;;;;;;10176479;28;20070;-59
2022/08/03 07:19:02;;;;;;;11.27;2.17;;;;;;;;;;10183925;28;20073;-59
2022/08/03 07:24:02;;;;;;;2.33;2.03;;;;;;;;;;10192450;28;20058;-60
2022/08/03 07:29:02;;;;;;;3.63;2.63;;;;;;;;;;10163469;28;20078;-60
2022/08/03 07:34:08;;;;;;;8.77;7.53;;;;;;;;;;10176510;28;20736;-61
2022/08/03 07:39:07;;;;;;;4.32;2.10;;;;;;;;;;10175722;28;20069;-62
2022/08/03 07:44:16;;;;;;;5.93;2.70;;;;;;;;;;10181958;28;20073;-61
2022/08/03 07:49:15;;;;;;;7.88;3.03;;;;;;;;;;10199050;28;20073;-60
2022/08/03 07:54:13;;;;;;;2.78;2.42;;;;;;;;;;10199719;28;20062;-60
2022/08/03 07:59:11;;;;;;;9.15;3.05;;;;;;;;;;10198473;28;20507;-60
2022/08/03 08:04:11;;;;;;;7.68;2.25;;;;;;;;;;10197878;28;20079;-60
2022/08/03 08:09:10;;;;;;;2.72;1.98;;;;;;;;;;10177095;28;20072;-60
2022/08/03 08:14:08;;;;;;;3.92;2.83;;;;;;;;;;10197124;28;20046;-60
2022/08/03 08:19:07;;;;;;;4.47;2.70;;;;;;;;;;10178085;28;20072;-60
2022/08/03 08:24:09;;;;;;;2.33;1.88;;;;;;;;;;10177744;28;20452;-61
2022/08/03 08:29:21;;;;;;;8.27;5.38;;;;;;;;;;10174892;28;20502;-59
2022/08/03 08:34:20;;;;;;;3.53;2.47;;;;;;;;;;10155839;28;20104;-60
2022/08/03 08:39:19;;;;;;;2.92;1.98;;;;;;;;;;10157498;28;20503;-60
2022/08/03 08:44:18;;;;;;;3.78;2.72;;;;;;;;;;10157768;28;20082;-61
2022/08/03 08:49:18;;;;;;;2.40;2.20;;;;;;;;;;10156366;28;20618;-61
2022/08/03 08:54:18;;;;;;;3.88;2.80;;;;;;;;;;10165403;28;20101;-60
2022/08/03 08:59:18;;;;;;;4.47;2.25;;;;;;;;;;10162988;28;20077;-61
2022/08/03 09:04:17;;;;;;;4.32;2.42;;;;;;;;;;10195805;28;20068;-60
2022/08/03 09:09:15;;;;;;;5.75;2.03;;;;;;;;;;10157724;28;20078;-60
2022/08/03 09:14:35;;;;;;;7.65;2.53;;;;;;;;;;10154737;28;20046;-59
2022/08/03 09:20:05;;;;;;;2.90;2.30;;;;;;;;;;10165316;28;20042;-59
2022/08/03 09:25:06;;;;;;;3.20;2.65;;;;;;;;;;10153798;28;20086;-60
2022/08/03 09:30:22;;;;;;;4.88;3.00;;;;;;;;;;10152065;28;20077;-60
2022/08/03 09:35:32;;;;;;;6.35;2.47;;;;;;;;;;10155019;28;20492;-59
2022/08/03 09:40:50;;;;;;;2.40;1.95;;;;;;;;;;10152929;28;20074;-59
2022/08/03 09:46:03;;;;;;;5.18;3.92;;;;;;;;;;10147335;28;21019;-60
2022/08/03 09:51:03;;;;;;;6.18;2.58;;;;;;;;;;10154412;28;20073;-61
2022/08/03 09:56:21;;;;;;;7.05;3.08;;;;;;;;;;10174179;28;20077;-61
2022/08/03 10:01:36;;;;;;;2.55;2.35;;;;;;;;;;10173259;28;20069;-60
2022/08/03 10:06:34;;;;;;;2.97;2.30;;;;;;;;;;10169116;28;20073;-61
2022/08/03 10:11:33;;;;;;;3.67;2.97;;;;;;;;;;10172240;28;20081;-61
2022/08/03 10:16:40;;;;;;;3.55;2.78;;;;;;;;;;10170380;28;20443;-61
2022/08/03 10:21:39;;;;;;;2.95;2.15;;;;;;;;;;10169599;28;20081;-61
2022/08/03 10:26:39;;;;;;;4.20;2.85;;;;;;;;;;10169567;28;20085;-61
2022/08/03 10:31:48;;;;;;;4.95;2.03;;;;;;;;;;10172244;28;20073;-60
2022/08/03 10:36:56;;;;;;;10.07;2.33;;;;;;;;;;10176295;28;20070;-62
2022/08/03 10:41:56;;;;;;;3.25;2.67;;;;;;;;;;10193166;28;20546;-60
2022/08/03 10:46:56;;;;;;;2.97;2.70;;;;;;;;;;10190137;28;20109;-61
2022/08/03 10:51:54;;;;;;;3.90;2.20;;;;;;;;;;10179099;28;20081;-61
2022/08/03 11:02:13;;;;;;;5.53;2.40;;;;;;;;;;10193672;28;20079;-60
2022/08/03 11:07:18;;;;;;;2.88;2.53;;;;;;;;;;10160204;28;20073;-61
2022/08/03 11:12:24;;;;;;;2.53;2.08;;;;;;;;;;10200068;28;20081;-60
2022/08/03 11:17:29;;;;;;;7.95;3.00;;;;;;;;;;10197390;28;20484;-60
2022/08/03 11:22:47;;;;;;;5.30;2.88;;;;;;;;;;10195041;28;20088;-61
2022/08/03 11:27:45;;;;;;;2.83;2.30;;;;;;;;;;10199906;28;20078;-60
2022/08/03 11:32:57;;;;;;;3.20;2.08;;;;;;;;;;10197746;28;20037;-61
2022/08/03 11:38:08;;;;;;;3.58;2.20;;;;;;;;;;10181642;28;20089;-62
2022/08/03 11:43:07;;;;;;;3.45;2.25;;;;;;;;;;10184329;28;20066;-61
2022/08/03 11:48:16;;;;;;;1.80;1.70;;;;;;;;;;10178481;28;20081;-61
2022/08/03 11:53:17;;;;;;;5.93;2.67;;;;;;;;;;10160719;28;20066;-59
2022/08/03 11:58:16;;;;;;;2.00;1.90;;;;;;;;;;10157694;28;20062;-60
2022/08/03 12:03:36;;;;;;;3.58;2.70;;;;;;;;;;10157655;28;20078;-59
2022/08/03 12:08:34;;;;;;;4.32;2.17;;;;;;;;;;10158009;28;20105;-60
2022/08/03 12:13:37;;;;;;;7.95;3.10;;;;;;;;;;10155003;28;20455;-60
2022/08/03 12:18:57;;;;;;;3.65;3.05;;;;;;;;;;10154030;28;20085;-60
2022/08/03 12:23:59;;;;;;;5.10;2.70;;;;;;;;;;10155750;28;20085;-60
2022/08/03 12:28:57;;;;;;;3.33;2.30;;;;;;;;;;10157076;28;20078;-59
2022/08/03 12:33:59;;;;;;;4.82;1.80;;;;;;;;;;10158226;28;20054;-60
2022/08/03 12:38:58;;;;;;;2.03;1.83;;;;;;;;;;10158058;28;20102;-61
2022/08/03 12:43:56;;;;;;;3.50;2.25;;;;;;;;;;10157956;28;20088;-61
2022/08/03 12:49:00;;;;;;;2.33;2.05;;;;;;;;;;10157551;28;20069;-60
2022/08/03 12:53:59;;;;;;;2.92;1.90;;;;;;;;;;10157810;28;20050;-60
2022/08/03 12:58:57;;;;;;;3.28;2.25;;;;;;;;;;10156394;28;20086;-60
2022/08/03 13:03:56;;;;;;;5.65;2.58;;;;;;;;;;10156431;28;20042;-61
2022/08/03 13:09:06;;;;;;;6.03;2.90;;;;;;;;;;10157294;28;20100;-60
2022/08/03 13:14:04;;;;;;;5.35;3.42;;;;;;;;;;10156598;28;20049;-60
2022/08/03 13:19:03;;;;;;;3.53;2.60;;;;;;;;;;10155827;28;20078;-60
2022/08/03 13:24:01;;;;;;;4.25;3.50;;;;;;;;;;10156352;28;20500;-60
2022/08/03 13:29:01;;;;;;;3.75;2.35;;;;;;;;;;10155530;28;20077;-60
2022/08/03 13:33:59;;;;;;;4.82;2.13;;;;;;;;;;10154538;28;20070;-60
2022/08/03 13:38:57;;;;;;;2.97;2.65;;;;;;;;;;10155399;28;20044;-60
2022/08/03 13:43:56;;;;;;;9.02;2.38;;;;;;;;;;10155329;28;20069;-61
2022/08/03 13:49:16;;;;;;;2.50;2.10;;;;;;;;;;10154885;28;20105;-60
2022/08/03 13:54:14;;;;;;;3.35;2.35;;;;;;;;;;10154553;28;20065;-60
2022/08/03 13:59:13;;;;;;;4.75;3.33;;;;;;;;;;10154775;28;20472;-60
2022/08/03 14:04:11;;;;;;;7.43;2.75;;;;;;;;;;10154638;28;20066;-61
2022/08/03 14:09:20;;;;;;;4.63;2.60;;;;;;;;;;10152322;28;20512;-61
2022/08/03 14:14:19;;;;;;;2.10;1.85;;;;;;;;;;10153929;28;20507;-61
2022/08/03 14:19:18;;;;;;;3.45;3.15;;;;;;;;;;10154324;28;20096;-61
2022/08/03 14:24:24;;;;;;;3.75;3.45;;;;;;;;;;10154635;28;20046;-61
2022/08/03 14:29:22;;;;;;;3.88;3.47;;;;;;;;;;10154598;28;20073;-61
2022/08/03 14:34:20;;;;;;;4.97;3.00;;;;;;;;;;10154455;28;20089;-60
2022/08/03 14:39:18;;;;;;;2.30;2.05;;;;;;;;;;10154142;28;20089;-60
2022/08/03 14:44:18;;;;;;;3.42;3.05;;;;;;;;;;10154567;28;20074;-61
2022/08/03 14:49:16;;;;;;;5.35;3.38;;;;;;;;;;10154560;28;20101;-60
2022/08/03 14:54:35;;;;;;;5.97;2.72;;;;;;;;;;10153021;28;20377;-60
2022/08/03 14:59:34;;;;;;;5.35;4.13;;;;;;;;;;10151924;28;20046;-60
2022/08/03 15:04:53;;;;;;;5.15;2.70;;;;;;;;;;10152904;28;20042;-60
2022/08/03 15:09:51;;;;;;;4.45;4.05;;;;;;;;;;10153395;28;20519;-60
2022/08/03 15:14:51;;;;;;;5.35;3.58;;;;;;;;;;10153069;28;20085;-61
2022/08/03 15:19:49;;;;;;;4.32;2.67;;;;;;;;;;10152766;28;20058;-60
2022/08/03 15:25:02;;;;;;;4.70;4.28;;;;;;;;;;10152684;28;20078;-60
2022/08/03 15:30:22;;;;;;;8.32;3.22;;;;;;;;;;10159051;28;20116;-60
2022/08/03 15:35:20;;;;;;;7.35;4.35;;;;;;;;;;10159449;28;20070;-60
2022/08/03 15:40:19;;;;;;;3.20;2.47;;;;;;;;;;10159286;28;20069;-60
2022/08/03 15:45:17;;;;;;;4.28;2.30;;;;;;;;;;10158653;28;20081;-60
2022/08/03 15:50:19;;;;;;;8.80;3.75;;;;;;;;;;10157423;28;20112;-61
2022/08/03 15:55:18;;;;;;;2.42;2.22;;;;;;;;;;10159061;28;20455;-61
2022/08/03 16:00:16;;;;;;;3.78;2.15;;;;;;;;;;10158774;28;20050;-62
2022/08/03 16:05:15;;;;;;;7.70;3.30;;;;;;;;;;10158992;28;20240;-60
2022/08/03 16:10:16;;;;;;;5.53;2.05;;;;;;;;;;10158377;28;20467;-61
2022/08/03 16:15:14;;;;;;;4.82;2.38;;;;;;;;;;10158268;28;20049;-61
2022/08/03 16:20:14;;;;;;;4.57;2.72;;;;;;;;;;10158250;28;20089;-61
2022/08/03 16:25:33;;;;;;;3.58;3.20;;;;;;;;;;10157429;28;20115;-60
2022/08/03 16:30:32;;;;;;;4.72;4.30;;;;;;;;;;10157983;28;20085;-60
2022/08/03 16:35:30;;;;;;;5.78;2.45;;;;;;;;;;10157686;28;20047;-60
2022/08/03 16:40:28;;;;;;;4.30;2.08;;;;;;;;;;10157018;28;20042;-60
2022/08/03 16:45:28;;;;;;;4.07;2.55;;;;;;;;;;10156837;28;20497;-61
2022/08/03 16:50:26;;;;;;;9.60;3.20;;;;;;;;;;10156822;28;20535;-61
2022/08/03 16:55:25;;;;;;;4.57;3.30;;;;;;;;;;10167309;28;20069;-59
2022/08/03 17:00:45;;;;;;;7.53;2.92;;;;;;;;;;10153253;28;20051;-61
2022/08/03 17:05:43;;;;;;;5.80;5.20;;;;;;;;;;10151226;28;20189;-60
2022/08/03 17:10:45;;;;;;;8.15;4.80;;;;;;;;;;10152063;28;20089;-60
2022/08/03 17:15:46;;;;;;;9.77;6.60;;;;;;;;;;10150769;28;20078;-60
2022/08/03 17:21:03;;;;;;;5.32;2.67;;;;;;;;;;10148891;28;20539;-60
2022/08/03 17:26:02;;;;;;;2.97;2.58;;;;;;;;;;10150635;28;20085;-59
2022/08/03 17:31:17;;;;;;;3.65;2.42;;;;;;;;;;10151080;28;20093;-60
2022/08/03 17:36:30;;;;;;;2.63;2.42;;;;;;;;;;10155063;28;20086;-59
2022/08/03 17:41:48;;;;;;;3.92;2.70;;;;;;;;;;10154606;28;20122;-59
2022/08/03 17:47:06;;;;;;;5.13;3.35;;;;;;;;;;10153892;28;20069;-59
2022/08/03 17:52:10;;;;;;;3.90;2.85;;;;;;;;;;10154652;28;20543;-59
2022/08/03 17:57:18;;;;;;;8.52;4.57;;;;;;;;;;10155190;28;20411;-60
2022/08/03 18:07:50;;;;;;;6.40;3.67;;;;;;;;;;10154161;28;20074;-58
2022/08/03 18:13:02;;;;;;;6.13;3.08;;;;;;;;;;10153329;28;20069;-59
2022/08/03 18:18:08;;;;;;;8.75;2.90;;;;;;;;;;10150057;28;20650;-59
2022/08/03 18:23:10;;;;;;;4.82;2.20;;;;;;;;;;10155954;28;20083;-59
2022/08/03 18:28:24;;;;;;;2.58;2.03;;;;;;;;;;10145249;28;20069;-59
2022/08/03 18:33:25;;;;;;;2.03;1.92;;;;;;;;;;10164556;28;20070;-59
2022/08/03 18:38:45;;;;;;;1.73;1.63;;;;;;;;;;10159113;28;20084;-59
2022/08/03 18:43:46;;;;;;;5.22;2.53;;;;;;;;;;10155933;28;20069;-60
2022/08/03 18:49:10;;;;;;;1.67;1.52;;;;;;;;;;10176619;28;20058;-61
2022/08/03 18:54:11;;;;;;;2.90;1.80;;;;;;;;;;10151977;28;20061;-59
2022/08/03 18:59:31;;;;;;;2.83;1.60;;;;;;;;;;10153624;28;20547;-60
2022/08/03 19:04:34;;;;;;;2.10;1.90;;;;;;;;;;10127848;28;20074;-59
2022/08/03 19:09:37;;;;;;;4.18;2.53;;;;;;;;;;10142096;28;20063;-60
2022/08/03 19:14:38;;;;;;;2.28;1.80;;;;;;;;;;10148714;28;20066;-60
2022/08/03 19:19:39;;;;;;;4.03;2.60;;;;;;;;;;10157885;28;20457;-61
2022/08/03 19:24:44;;;;;;;4.82;2.75;;;;;;;;;;10146967;28;20069;-59
2022/08/03 19:29:44;;;;;;;2.40;2.10;;;;;;;;;;10137175;28;20085;-58
2022/08/03 19:34:59;;;;;;;4.32;2.42;;;;;;;;;;10147953;28;20084;-59
2022/08/03 19:40:00;;;;;;;3.15;2.70;;;;;;;;;;10159616;28;20500;-59
2022/08/03 19:45:04;;;;;;;3.60;2.45;;;;;;;;;;10142812;28;20085;-59
2022/08/03 19:50:11;;;;;;;3.78;1.88;;;;;;;;;;10142055;28;20078;-60
2022/08/03 19:55:15;;;;;;;2.47;2.13;;;;;;;;;;10147282;28;20062;-59
2022/08/03 20:00:18;;;;;;;3.58;1.92;;;;;;;;;;10135574;28;20082;-60
2022/08/03 20:05:17;;;;;;;4.25;1.92;;;;;;;;;;10147667;28;20081;-60
2022/08/03 20:10:17;;;;;;;2.17;1.80;;;;;;;;;;10168915;28;20464;-60
2022/08/03 20:15:16;;;;;;;3.25;1.42;;;;;;;;;;10167914;28;20084;-58
2022/08/03 20:20:30;;;;;;;2.73;1.97;;;;;;;;;;10160845;28;20082;-60
2022/08/03 20:25:31;;;;;;;1.92;1.65;;;;;;;;;;10115817;28;20487;-59
2022/08/03 20:30:36;;;;;;;2.47;1.95;;;;;;;;;;10151084;28;20081;-61
2022/08/03 20:35:35;;;;;;;2.78;2.00;;;;;;;;;;10154054;28;20074;-59
2022/08/03 20:40:35;;;;;;;2.15;1.80;;;;;;;;;;10155239;28;20082;-59
2022/08/03 20:45:35;;;;;;;3.05;1.83;;;;;;;;;;10148918;28;20468;-59
2022/08/03 20:50:55;;;;;;;1.88;1.67;;;;;;;;;;10129500;28;20073;-60
2022/08/03 20:55:55;;;;;;;5.57;2.33;;;;;;;;;;10173295;28;20084;-60
2022/08/03 21:01:00;;;;;;;5.15;1.80;;;;;;;;;;10164435;28;20077;-60
2022/08/03 21:06:03;;;;;;;1.73;1.63;;;;;;;;;;10146977;28;20112;-60
2022/08/03 21:11:06;;;;;;;4.32;1.60;;;;;;;;;;10150312;28;20074;-60
2022/08/03 21:16:05;;;;;;;1.52;1.40;;;;;;;;;;10184216;28;20151;-60
2022/08/03 21:21:13;;;;;;;7.28;1.60;;;;;;;;;;10172064;28;20088;-60
2022/08/03 21:26:13;;;;;;;2.33;1.50;;;;;;;;;;10162665;28;20484;-60
2022/08/03 21:31:12;;;;;;;3.47;1.65;;;;;;;;;;10156379;28;20086;-60
2022/08/03 21:36:16;;;;;;;2.22;1.52;;;;;;;;;;10167869;28;20082;-60
2022/08/03 21:41:16;;;;;;;2.63;1.70;;;;;;;;;;10153672;28;20093;-60
2022/08/03 21:46:18;;;;;;;2.45;1.85;;;;;;;;;;10168696;28;20514;-60
2022/08/03 21:51:18;;;;;;;3.97;1.33;;;;;;;;;;10167570;28;20459;-60
2022/08/03 21:56:18;;;;;;;3.88;1.50;;;;;;;;;;10170947;28;20068;-60
2022/08/03 22:01:18;;;;;;;10.35;1.60;;;;;;;;;;10182604;28;20069;-61
2022/08/03 22:06:16;;;;;;;4.10;1.50;;;;;;;;;;10191946;28;20092;-60
2022/08/03 22:11:18;;;;;;;3.10;1.27;;;;;;;;;;10192191;28;20081;-61
2022/08/03 22:16:17;;;;;;;3.17;1.58;;;;;;;;;;10193636;28;20415;-61
2022/08/03 22:21:16;;;;;;;1.63;1.50;;;;;;;;;;10193999;28;20320;-59
2022/08/03 22:26:35;;;;;;;3.50;2.63;;;;;;;;;;10194167;28;20077;-59
2022/08/03 22:31:34;;;;;;;1.85;1.67;;;;;;;;;;10194048;28;20042;-60
2022/08/03 22:36:52;;;;;;;3.50;2.10;;;;;;;;;;10176167;28;20477;-60
2022/08/03 22:41:56;;;;;;;2.10;1.90;;;;;;;;;;10167231;28;20077;-60
2022/08/03 22:46:55;;;;;;;3.30;2.05;;;;;;;;;;10166913;28;20042;-60
2022/08/03 22:51:53;;;;;;;4.97;2.47;;;;;;;;;;10167226;28;20089;-59
2022/08/03 22:56:52;;;;;;;2.50;1.63;;;;;;;;;;10167199;28;20042;-59
2022/08/03 23:01:56;;;;;;;6.03;1.83;;;;;;;;;;10168088;28;20038;-59
2022/08/03 23:06:56;;;;;;;6.25;1.60;;;;;;;;;;10201030;28;20050;-60
2022/08/03 23:11:55;;;;;;;5.53;2.22;;;;;;;;;;10206586;28;20089;-59
2022/08/03 23:16:56;;;;;;;3.17;2.17;;;;;;;;;;10206148;28;20055;-59
2022/08/03 23:21:55;;;;;;;4.55;1.92;;;;;;;;;;10206159;28;20088;-59
2022/08/03 23:27:02;;;;;;;3.22;2.35;;;;;;;;;;10205824;28;20038;-60
2022/08/03 23:32:02;;;;;;;9.18;2.60;;;;;;;;;;10205684;28;20084;-61
2022/08/03 23:37:01;;;;;;;3.50;2.35;;;;;;;;;;10206513;28;20050;-61
2022/08/03 23:42:01;;;;;;;5.95;2.67;;;;;;;;;;10206606;28;20069;-61
2022/08/03 23:47:00;;;;;;;5.80;1.65;;;;;;;;;;10203723;28;20058;-61
2022/08/03 23:52:15;;;;;;;2.10;1.90;;;;;;;;;;10199428;28;20121;-60
2022/08/03 23:57:17;;;;;;;3.85;1.80;;;;;;;;;;10199514;28;20160;-60
